sensor_id;sensor_type;location;lat;lon;timestamp;temperature;humidity
67196;DHT22;54122;53.538;49.366;2023-03-14T00:02:11;-4.30;94.40
67196;DHT22;54122;53.538;49.366;2023-03-14T00:04:37;-4.40;94.30
67196;DHT22;54122;53.538;49.366;2023-03-14T00:07:04;-4.40;94.40
67196;DHT22;54122;53.538;49.366;2023-03-14T00:09:30;-4.50;94.50
67196;DHT22;54122;53.538;49.366;2023-03-14T00:11:56;-4.50;94.50
67196;DHT22;54122;53.538;49.366;2023-03-14T00:14:23;-4.50;94.50
67196;DHT22;54122;53.538;49.366;2023-03-14T00:16:49;-4.50;94.60
67196;DHT22;54122;53.538;49.366;2023-03-14T00:19:16;-4.50;94.60
67196;DHT22;54122;53.538;49.366;2023-03-14T00:21:42;-4.50;94.60
67196;DHT22;54122;53.538;49.366;2023-03-14T00:24:09;-4.50;94.90
67196;DHT22;54122;53.538;49.366;2023-03-14T00:26:35;-4.50;94.60
67196;DHT22;54122;53.538;49.366;2023-03-14T00:29:01;-4.50;94.60
67196;DHT22;54122;53.538;49.366;2023-03-14T00:31:27;-4.50;94.50
67196;DHT22;54122;53.538;49.366;2023-03-14T00:33:54;-4.60;94.60
67196;DHT22;54122;53.538;49.366;2023-03-14T00:36:20;-4.60;94.60
67196;DHT22;54122;53.538;49.366;2023-03-14T00:38:49;-4.70;94.50
67196;DHT22;54122;53.538;49.366;2023-03-14T00:41:23;-4.70;94.70
67196;DHT22;54122;53.538;49.366;2023-03-14T00:43:50;-4.80;94.70
67196;DHT22;54122;53.538;49.366;2023-03-14T00:46:18;-4.80;94.80
67196;DHT22;54122;53.538;49.366;2023-03-14T00:48:45;-4.80;94.80
67196;DHT22;54122;53.538;49.366;2023-03-14T00:51:12;-4.80;94.70
67196;DHT22;54122;53.538;49.366;2023-03-14T00:53:42;-4.80;94.60
67196;DHT22;54122;53.538;49.366;2023-03-14T00:56:11;-4.80;94.50
67196;DHT22;54122;53.538;49.366;2023-03-14T00:58:37;-4.90;94.50
67196;DHT22;54122;53.538;49.366;2023-03-14T01:01:16;-4.90;94.50
67196;DHT22;54122;53.538;49.366;2023-03-14T01:03:42;-4.80;94.70
67196;DHT22;54122;53.538;49.366;2023-03-14T01:06:17;-4.80;94.80
67196;DHT22;54122;53.538;49.366;2023-03-14T01:08:44;-4.70;95.00
67196;DHT22;54122;53.538;49.366;2023-03-14T01:11:14;-4.70;95.10
67196;DHT22;54122;53.538;49.366;2023-03-14T01:13:41;-4.60;95.10
67196;DHT22;54122;53.538;49.366;2023-03-14T01:16:09;-4.60;95.00
67196;DHT22;54122;53.538;49.366;2023-03-14T01:18:37;-4.50;94.90
67196;DHT22;54122;53.538;49.366;2023-03-14T01:21:09;-4.50;94.70
67196;DHT22;54122;53.538;49.366;2023-03-14T01:23:35;-4.50;94.50
67196;DHT22;54122;53.538;49.366;2023-03-14T01:26:02;-4.60;94.40
67196;DHT22;54122;53.538;49.366;2023-03-14T01:28:28;-4.70;94.30
67196;DHT22;54122;53.538;49.366;2023-03-14T01:30:54;-4.70;94.20
67196;DHT22;54122;53.538;49.366;2023-03-14T01:33:20;-4.80;94.20
67196;DHT22;54122;53.538;49.366;2023-03-14T01:35:50;-4.80;94.30
67196;DHT22;54122;53.538;49.366;2023-03-14T01:38:16;-4.90;94.40
67196;DHT22;54122;53.538;49.366;2023-03-14T01:40:44;-4.90;94.40
67196;DHT22;54122;53.538;49.366;2023-03-14T01:43:16;-4.90;94.90
67196;DHT22;54122;53.538;49.366;2023-03-14T01:51:36;-4.90;94.60
67196;DHT22;54122;53.538;49.366;2023-03-14T01:56:46;-5.00;94.60
67196;DHT22;54122;53.538;49.366;2023-03-14T01:59:14;-4.90;94.50
67196;DHT22;54122;53.538;49.366;2023-03-14T02:01:43;-5.00;94.50
67196;DHT22;54122;53.538;49.366;2023-03-14T02:04:11;-4.90;94.60
67196;DHT22;54122;53.538;49.366;2023-03-14T02:06:54;-4.90;94.70
67196;DHT22;54122;53.538;49.366;2023-03-14T02:09:21;-4.80;94.80
67196;DHT22;54122;53.538;49.366;2023-03-14T02:11:49;-4.80;94.70
67196;DHT22;54122;53.538;49.366;2023-03-14T02:14:24;-4.80;94.60
67196;DHT22;54122;53.538;49.366;2023-03-14T02:16:54;-4.80;94.70
67196;DHT22;54122;53.538;49.366;2023-03-14T02:22:12;-4.60;94.70
67196;DHT22;54122;53.538;49.366;2023-03-14T02:27:31;-4.50;94.60
67196;DHT22;54122;53.538;49.366;2023-03-14T02:29:58;-4.50;94.50
67196;DHT22;54122;53.538;49.366;2023-03-14T02:32:27;-4.60;94.40
67196;DHT22;54122;53.538;49.366;2023-03-14T02:35:00;-4.70;94.20
67196;DHT22;54122;53.538;49.366;2023-03-14T02:37:35;-4.70;94.40
67196;DHT22;54122;53.538;49.366;2023-03-14T02:40:03;-4.70;94.50
67196;DHT22;54122;53.538;49.366;2023-03-14T02:42:30;-4.70;94.40
67196;DHT22;54122;53.538;49.366;2023-03-14T02:47:37;-4.80;94.60
67196;DHT22;54122;53.538;49.366;2023-03-14T02:50:14;-4.80;94.90
67196;DHT22;54122;53.538;49.366;2023-03-14T02:52:41;-4.70;95.00
67196;DHT22;54122;53.538;49.366;2023-03-14T02:55:08;-4.60;95.10
67196;DHT22;54122;53.538;49.366;2023-03-14T02:57:35;-4.50;95.10
67196;DHT22;54122;53.538;49.366;2023-03-14T03:00:03;-4.40;95.00
67196;DHT22;54122;53.538;49.366;2023-03-14T03:02:33;-4.20;94.90
67196;DHT22;54122;53.538;49.366;2023-03-14T03:04:59;-4.10;94.80
67196;DHT22;54122;53.538;49.366;2023-03-14T03:07:25;-3.90;94.80
67196;DHT22;54122;53.538;49.366;2023-03-14T03:09:52;-3.70;94.80
67196;DHT22;54122;53.538;49.366;2023-03-14T03:12:18;-3.50;94.60
67196;DHT22;54122;53.538;49.366;2023-03-14T03:14:45;-3.30;94.30
67196;DHT22;54122;53.538;49.366;2023-03-14T03:17:11;-3.10;93.90
67196;DHT22;54122;53.538;49.366;2023-03-14T03:19:38;-3.00;93.50
67196;DHT22;54122;53.538;49.366;2023-03-14T03:22:05;-3.10;93.20
67196;DHT22;54122;53.538;49.366;2023-03-14T03:24:31;-3.10;93.10
67196;DHT22;54122;53.538;49.366;2023-03-14T03:26:58;-3.10;93.10
67196;DHT22;54122;53.538;49.366;2023-03-14T03:29:24;-3.20;93.20
67196;DHT22;54122;53.538;49.366;2023-03-14T03:31:51;-3.20;93.20
67196;DHT22;54122;53.538;49.366;2023-03-14T03:34:17;-3.10;93.10
67196;DHT22;54122;53.538;49.366;2023-03-14T03:36:44;-3.10;92.90
67196;DHT22;54122;53.538;49.366;2023-03-14T03:39:10;-3.10;92.90
67196;DHT22;54122;53.538;49.366;2023-03-14T03:41:36;-3.00;92.90
67196;DHT22;54122;53.538;49.366;2023-03-14T03:44:03;-2.90;92.90
67196;DHT22;54122;53.538;49.366;2023-03-14T03:46:29;-2.80;92.80
67196;DHT22;54122;53.538;49.366;2023-03-14T03:48:59;-2.80;92.50
67196;DHT22;54122;53.538;49.366;2023-03-14T03:51:26;-2.70;92.30
67196;DHT22;54122;53.538;49.366;2023-03-14T03:53:52;-2.60;92.10
67196;DHT22;54122;53.538;49.366;2023-03-14T03:56:18;-2.50;92.00
67196;DHT22;54122;53.538;49.366;2023-03-14T03:58:45;-2.40;91.90
67196;DHT22;54122;53.538;49.366;2023-03-14T04:01:11;-2.10;92.60
67196;DHT22;54122;53.538;49.366;2023-03-14T04:03:37;-1.80;91.30
67196;DHT22;54122;53.538;49.366;2023-03-14T04:06:12;-1.70;90.50
67196;DHT22;54122;53.538;49.366;2023-03-14T04:08:39;-1.20;92.10
67196;DHT22;54122;53.538;49.366;2023-03-14T04:11:06;0.30;90.80
67196;DHT22;54122;53.538;49.366;2023-03-14T04:13:33;2.00;85.90
67196;DHT22;54122;53.538;49.366;2023-03-14T04:15:59;3.10;80.80
67196;DHT22;54122;53.538;49.366;2023-03-14T04:18:25;4.10;77.70
67196;DHT22;54122;53.538;49.366;2023-03-14T04:20:53;4.90;74.20
67196;DHT22;54122;53.538;49.366;2023-03-14T04:23:20;5.40;71.50
67196;DHT22;54122;53.538;49.366;2023-03-14T04:25:46;5.70;68.80
67196;DHT22;54122;53.538;49.366;2023-03-14T04:28:12;6.10;66.20
67196;DHT22;54122;53.538;49.366;2023-03-14T04:30:39;6.50;65.20
67196;DHT22;54122;53.538;49.366;2023-03-14T04:33:05;7.00;61.60
67196;DHT22;54122;53.538;49.366;2023-03-14T04:35:31;7.30;61.00
67196;DHT22;54122;53.538;49.366;2023-03-14T04:37:57;7.80;59.80
67196;DHT22;54122;53.538;49.366;2023-03-14T04:40:25;8.10;56.80
67196;DHT22;54122;53.538;49.366;2023-03-14T04:42:51;8.70;57.20
67196;DHT22;54122;53.538;49.366;2023-03-14T04:45:18;9.10;54.60
67196;DHT22;54122;53.538;49.366;2023-03-14T04:47:44;9.50;53.20
67196;DHT22;54122;53.538;49.366;2023-03-14T04:50:10;9.90;51.10
67196;DHT22;54122;53.538;49.366;2023-03-14T04:52:37;10.30;48.90
67196;DHT22;54122;53.538;49.366;2023-03-14T04:55:03;10.30;47.80
67196;DHT22;54122;53.538;49.366;2023-03-14T04:57:29;10.10;47.70
67196;DHT22;54122;53.538;49.366;2023-03-14T04:59:56;10.40;47.30
67196;DHT22;54122;53.538;49.366;2023-03-14T05:02:22;10.40;45.90
67196;DHT22;54122;53.538;49.366;2023-03-14T05:04:48;9.20;45.70
67196;DHT22;54122;53.538;49.366;2023-03-14T05:07:14;8.00;48.40
67196;DHT22;54122;53.538;49.366;2023-03-14T05:09:41;7.90;49.20
67196;DHT22;54122;53.538;49.366;2023-03-14T05:12:07;8.40;48.50
67196;DHT22;54122;53.538;49.366;2023-03-14T05:14:34;9.00;47.10
67196;DHT22;54122;53.538;49.366;2023-03-14T05:17:00;9.50;46.60
67196;DHT22;54122;53.538;49.366;2023-03-14T05:19:26;10.10;44.50
67196;DHT22;54122;53.538;49.366;2023-03-14T05:21:52;10.40;43.20
67196;DHT22;54122;53.538;49.366;2023-03-14T05:24:19;10.80;43.10
67196;DHT22;54122;53.538;49.366;2023-03-14T05:26:45;11.40;42.60
67196;DHT22;54122;53.538;49.366;2023-03-14T05:29:11;11.90;41.70
67196;DHT22;54122;53.538;49.366;2023-03-14T05:31:37;12.20;42.30
67196;DHT22;54122;53.538;49.366;2023-03-14T05:34:04;12.70;40.60
67196;DHT22;54122;53.538;49.366;2023-03-14T05:36:30;13.20;39.30
67196;DHT22;54122;53.538;49.366;2023-03-14T05:38:56;13.60;38.20
67196;DHT22;54122;53.538;49.366;2023-03-14T05:41:22;13.70;37.20
67196;DHT22;54122;53.538;49.366;2023-03-14T05:43:48;13.90;36.40
67196;DHT22;54122;53.538;49.366;2023-03-14T05:46:14;13.50;35.30
67196;DHT22;54122;53.538;49.366;2023-03-14T05:48:41;13.30;36.50
67196;DHT22;54122;53.538;49.366;2023-03-14T05:51:07;13.30;35.60
67196;DHT22;54122;53.538;49.366;2023-03-14T05:53:34;13.10;35.10
67196;DHT22;54122;53.538;49.366;2023-03-14T05:56:00;12.90;35.20
67196;DHT22;54122;53.538;49.366;2023-03-14T05:58:26;12.40;35.50
67196;DHT22;54122;53.538;49.366;2023-03-14T06:00:53;12.60;36.50
67196;DHT22;54122;53.538;49.366;2023-03-14T06:03:19;12.60;36.20
67196;DHT22;54122;53.538;49.366;2023-03-14T06:05:46;12.70;35.80
67196;DHT22;54122;53.538;49.366;2023-03-14T06:08:12;12.80;35.60
67196;DHT22;54122;53.538;49.366;2023-03-14T06:10:38;13.00;35.20
67196;DHT22;54122;53.538;49.366;2023-03-14T06:13:05;13.10;35.20
67196;DHT22;54122;53.538;49.366;2023-03-14T06:15:31;12.70;34.60
67196;DHT22;54122;53.538;49.366;2023-03-14T06:17:59;12.60;34.50
67196;DHT22;54122;53.538;49.366;2023-03-14T06:20:25;12.30;34.70
67196;DHT22;54122;53.538;49.366;2023-03-14T06:22:52;12.20;35.00
67196;DHT22;54122;53.538;49.366;2023-03-14T06:25:18;12.30;35.20
67196;DHT22;54122;53.538;49.366;2023-03-14T06:27:45;12.30;34.50
67196;DHT22;54122;53.538;49.366;2023-03-14T06:30:11;12.20;34.90
67196;DHT22;54122;53.538;49.366;2023-03-14T06:32:38;12.40;35.00
67196;DHT22;54122;53.538;49.366;2023-03-14T06:35:05;12.60;34.30
67196;DHT22;54122;53.538;49.366;2023-03-14T06:37:31;12.50;34.00
67196;DHT22;54122;53.538;49.366;2023-03-14T06:39:58;12.40;34.30
67196;DHT22;54122;53.538;49.366;2023-03-14T06:42:24;12.40;34.60
67196;DHT22;54122;53.538;49.366;2023-03-14T06:44:50;12.50;34.50
67196;DHT22;54122;53.538;49.366;2023-03-14T06:47:17;12.90;34.50
67196;DHT22;54122;53.538;49.366;2023-03-14T06:49:43;13.20;33.80
67196;DHT22;54122;53.538;49.366;2023-03-14T06:52:10;13.30;32.90
67196;DHT22;54122;53.538;49.366;2023-03-14T06:54:36;13.10;32.80
67196;DHT22;54122;53.538;49.366;2023-03-14T06:57:03;13.10;33.40
67196;DHT22;54122;53.538;49.366;2023-03-14T06:59:29;13.40;33.40
67196;DHT22;54122;53.538;49.366;2023-03-14T07:01:56;13.50;32.30
67196;DHT22;54122;53.538;49.366;2023-03-14T07:04:22;13.30;32.30
67196;DHT22;54122;53.538;49.366;2023-03-14T07:06:48;13.10;32.40
67196;DHT22;54122;53.538;49.366;2023-03-14T07:09:15;13.20;32.30
67196;DHT22;54122;53.538;49.366;2023-03-14T07:11:43;13.30;32.50
67196;DHT22;54122;53.538;49.366;2023-03-14T07:14:09;13.40;32.10
67196;DHT22;54122;53.538;49.366;2023-03-14T07:16:36;13.30;32.00
67196;DHT22;54122;53.538;49.366;2023-03-14T07:19:03;13.60;32.50
67196;DHT22;54122;53.538;49.366;2023-03-14T07:21:29;13.90;32.10
67196;DHT22;54122;53.538;49.366;2023-03-14T07:23:57;14.00;31.30
67196;DHT22;54122;53.538;49.366;2023-03-14T07:26:24;14.20;30.60
67196;DHT22;54122;53.538;49.366;2023-03-14T07:28:50;14.10;30.00
67196;DHT22;54122;53.538;49.366;2023-03-14T07:31:17;13.90;30.40
67196;DHT22;54122;53.538;49.366;2023-03-14T07:33:43;13.30;31.00
67196;DHT22;54122;53.538;49.366;2023-03-14T07:36:10;13.20;31.10
67196;DHT22;54122;53.538;49.366;2023-03-14T07:38:36;13.30;31.30
67196;DHT22;54122;53.538;49.366;2023-03-14T07:41:05;13.50;31.00
67196;DHT22;54122;53.538;49.366;2023-03-14T07:43:32;13.70;30.50
67196;DHT22;54122;53.538;49.366;2023-03-14T07:45:59;13.80;30.60
67196;DHT22;54122;53.538;49.366;2023-03-14T07:48:26;13.90;30.20
67196;DHT22;54122;53.538;49.366;2023-03-14T07:50:54;14.10;30.30
67196;DHT22;54122;53.538;49.366;2023-03-14T07:53:21;14.00;30.30
67196;DHT22;54122;53.538;49.366;2023-03-14T07:55:48;14.10;30.40
67196;DHT22;54122;53.538;49.366;2023-03-14T07:58:16;14.20;31.50
67196;DHT22;54122;53.538;49.366;2023-03-14T08:00:43;14.20;30.50
67196;DHT22;54122;53.538;49.366;2023-03-14T08:03:09;14.00;30.00
67196;DHT22;54122;53.538;49.366;2023-03-14T08:05:36;13.80;30.60
67196;DHT22;54122;53.538;49.366;2023-03-14T08:08:04;13.90;31.00
67196;DHT22;54122;53.538;49.366;2023-03-14T08:10:30;13.80;30.40
67196;DHT22;54122;53.538;49.366;2023-03-14T08:12:58;13.90;30.60
67196;DHT22;54122;53.538;49.366;2023-03-14T08:15:26;13.80;30.60
67196;DHT22;54122;53.538;49.366;2023-03-14T08:17:52;14.00;30.60
67196;DHT22;54122;53.538;49.366;2023-03-14T08:20:25;14.10;30.20
67196;DHT22;54122;53.538;49.366;2023-03-14T08:22:53;13.90;29.80
67196;DHT22;54122;53.538;49.366;2023-03-14T08:25:20;13.90;30.40
67196;DHT22;54122;53.538;49.366;2023-03-14T08:27:47;13.90;30.40
67196;DHT22;54122;53.538;49.366;2023-03-14T08:30:15;13.90;30.00
67196;DHT22;54122;53.538;49.366;2023-03-14T08:32:41;13.90;30.00
67196;DHT22;54122;53.538;49.366;2023-03-14T08:35:08;14.00;29.80
67196;DHT22;54122;53.538;49.366;2023-03-14T08:37:35;13.90;29.40
67196;DHT22;54122;53.538;49.366;2023-03-14T08:40:04;13.70;29.30
67196;DHT22;54122;53.538;49.366;2023-03-14T08:42:36;13.30;29.60
67196;DHT22;54122;53.538;49.366;2023-03-14T08:45:04;13.00;29.90
67196;DHT22;54122;53.538;49.366;2023-03-14T08:47:30;12.90;30.10
67196;DHT22;54122;53.538;49.366;2023-03-14T08:49:57;12.80;30.40
67196;DHT22;54122;53.538;49.366;2023-03-14T08:52:23;12.50;30.70
67196;DHT22;54122;53.538;49.366;2023-03-14T08:54:50;12.40;31.10
67196;DHT22;54122;53.538;49.366;2023-03-14T08:57:16;12.40;31.30
67196;DHT22;54122;53.538;49.366;2023-03-14T08:59:43;12.40;30.70
67196;DHT22;54122;53.538;49.366;2023-03-14T09:02:12;12.50;31.10
67196;DHT22;54122;53.538;49.366;2023-03-14T09:04:39;12.30;31.00
67196;DHT22;54122;53.538;49.366;2023-03-14T09:07:06;12.40;31.10
67196;DHT22;54122;53.538;49.366;2023-03-14T09:09:33;12.50;32.00
67196;DHT22;54122;53.538;49.366;2023-03-14T09:11:59;12.40;31.10
67196;DHT22;54122;53.538;49.366;2023-03-14T09:14:26;12.50;31.10
67196;DHT22;54122;53.538;49.366;2023-03-14T09:16:52;12.60;30.50
67196;DHT22;54122;53.538;49.366;2023-03-14T09:19:19;12.50;30.00
67196;DHT22;54122;53.538;49.366;2023-03-14T09:21:45;12.10;30.30
67196;DHT22;54122;53.538;49.366;2023-03-14T09:24:12;12.10;30.30
67196;DHT22;54122;53.538;49.366;2023-03-14T09:26:38;11.80;31.00
67196;DHT22;54122;53.538;49.366;2023-03-14T09:29:05;11.80;31.60
67196;DHT22;54122;53.538;49.366;2023-03-14T09:31:31;11.70;30.60
67196;DHT22;54122;53.538;49.366;2023-03-14T09:34:02;11.20;31.50
67196;DHT22;54122;53.538;49.366;2023-03-14T09:36:29;11.00;33.50
67196;DHT22;54122;53.538;49.366;2023-03-14T09:38:56;10.90;32.50
67196;DHT22;54122;53.538;49.366;2023-03-14T09:41:33;10.60;33.20
67196;DHT22;54122;53.538;49.366;2023-03-14T09:44:01;10.50;33.80
67196;DHT22;54122;53.538;49.366;2023-03-14T09:46:29;10.40;34.10
67196;DHT22;54122;53.538;49.366;2023-03-14T09:48:58;10.30;33.90
67196;DHT22;54122;53.538;49.366;2023-03-14T09:51:25;9.90;35.30
67196;DHT22;54122;53.538;49.366;2023-03-14T09:53:52;9.70;34.50
67196;DHT22;54122;53.538;49.366;2023-03-14T09:56:27;9.40;35.20
67196;DHT22;54122;53.538;49.366;2023-03-14T09:58:58;9.20;35.70
67196;DHT22;54122;53.538;49.366;2023-03-14T10:01:27;8.90;35.40
67196;DHT22;54122;53.538;49.366;2023-03-14T10:03:56;8.60;36.70
67196;DHT22;54122;53.538;49.366;2023-03-14T10:06:28;8.40;37.80
67196;DHT22;54122;53.538;49.366;2023-03-14T10:08:56;8.50;37.70
67196;DHT22;54122;53.538;49.366;2023-03-14T10:11:23;8.30;36.80
67196;DHT22;54122;53.538;49.366;2023-03-14T10:14:10;8.00;37.40
67196;DHT22;54122;53.538;49.366;2023-03-14T10:16:45;7.90;37.90
67196;DHT22;54122;53.538;49.366;2023-03-14T10:19:16;7.80;37.90
67196;DHT22;54122;53.538;49.366;2023-03-14T10:21:44;7.70;38.70
67196;DHT22;54122;53.538;49.366;2023-03-14T10:26:57;7.50;38.90
67196;DHT22;54122;53.538;49.366;2023-03-14T10:29:24;7.40;39.20
67196;DHT22;54122;53.538;49.366;2023-03-14T10:31:59;7.30;39.50
67196;DHT22;54122;53.538;49.366;2023-03-14T10:36:57;7.10;40.90
67196;DHT22;54122;53.538;49.366;2023-03-14T10:41:55;6.90;42.60
67196;DHT22;54122;53.538;49.366;2023-03-14T10:44:24;6.90;42.30
67196;DHT22;54122;53.538;49.366;2023-03-14T10:47:02;6.70;42.50
67196;DHT22;54122;53.538;49.366;2023-03-14T10:49:36;6.50;42.50
67196;DHT22;54122;53.538;49.366;2023-03-14T10:54:38;6.20;43.70
67196;DHT22;54122;53.538;49.366;2023-03-14T10:57:04;6.20;44.00
67196;DHT22;54122;53.538;49.366;2023-03-14T10:59:41;6.20;43.90
67196;DHT22;54122;53.538;49.366;2023-03-14T11:08:20;6.00;43.10
67196;DHT22;54122;53.538;49.366;2023-03-14T11:11:01;5.90;43.90
67196;DHT22;54122;53.538;49.366;2023-03-14T11:13:50;5.80;44.00
67196;DHT22;54122;53.538;49.366;2023-03-14T11:29:41;5.20;42.80
67196;DHT22;54122;53.538;49.366;2023-03-14T11:32:36;5.10;42.80
67196;DHT22;54122;53.538;49.366;2023-03-14T11:35:14;4.90;42.60
67196;DHT22;54122;53.538;49.366;2023-03-14T11:38:10;4.70;42.50
67196;DHT22;54122;53.538;49.366;2023-03-14T11:40:38;4.70;42.60
67196;DHT22;54122;53.538;49.366;2023-03-14T11:43:33;4.60;42.80
67196;DHT22;54122;53.538;49.366;2023-03-14T11:46:28;4.60;42.90
67196;DHT22;54122;53.538;49.366;2023-03-14T11:51:36;4.60;42.70
67196;DHT22;54122;53.538;49.366;2023-03-14T11:54:20;4.60;42.50
67196;DHT22;54122;53.538;49.366;2023-03-14T11:56:59;4.60;42.50
67196;DHT22;54122;53.538;49.366;2023-03-14T11:59:35;4.60;42.50
67196;DHT22;54122;53.538;49.366;2023-03-14T12:10:43;4.30;44.50
67196;DHT22;54122;53.538;49.366;2023-03-14T12:13:13;4.10;45.20
67196;DHT22;54122;53.538;49.366;2023-03-14T12:15:46;4.00;45.80
67196;DHT22;54122;53.538;49.366;2023-03-14T12:18:27;3.80;46.60
67196;DHT22;54122;53.538;49.366;2023-03-14T12:21:04;3.70;47.60
67196;DHT22;54122;53.538;49.366;2023-03-14T12:23:40;3.60;48.50
67196;DHT22;54122;53.538;49.366;2023-03-14T12:26:14;3.60;49.40
67196;DHT22;54122;53.538;49.366;2023-03-14T12:28:52;3.60;50.40
67196;DHT22;54122;53.538;49.366;2023-03-14T12:31:36;3.50;51.40
67196;DHT22;54122;53.538;49.366;2023-03-14T13:02:00;2.90;55.30
67196;DHT22;54122;53.538;49.366;2023-03-14T13:07:03;2.90;54.90
67196;DHT22;54122;53.538;49.366;2023-03-14T13:14:35;3.10;53.70
67196;DHT22;54122;53.538;49.366;2023-03-14T13:17:03;3.20;53.40
67196;DHT22;54122;53.538;49.366;2023-03-14T13:19:30;3.20;53.20
67196;DHT22;54122;53.538;49.366;2023-03-14T13:22:04;3.30;52.60
67196;DHT22;54122;53.538;49.366;2023-03-14T13:24:34;3.30;52.40
67196;DHT22;54122;53.538;49.366;2023-03-14T13:27:00;3.30;52.00
67196;DHT22;54122;53.538;49.366;2023-03-14T13:29:33;3.30;51.90
67196;DHT22;54122;53.538;49.366;2023-03-14T13:32:16;3.20;51.70
67196;DHT22;54122;53.538;49.366;2023-03-14T13:34:45;3.20;52.50
67196;DHT22;54122;53.538;49.366;2023-03-14T13:37:24;3.00;51.50
67196;DHT22;54122;53.538;49.366;2023-03-14T13:39:52;2.90;51.80
67196;DHT22;54122;53.538;49.366;2023-03-14T13:42:19;2.80;51.90
67196;DHT22;54122;53.538;49.366;2023-03-14T13:44:46;2.70;52.00
67196;DHT22;54122;53.538;49.366;2023-03-14T13:47:16;2.60;52.50
67196;DHT22;54122;53.538;49.366;2023-03-14T13:49:44;2.50;52.80
67196;DHT22;54122;53.538;49.366;2023-03-14T13:52:36;2.40;53.00
67196;DHT22;54122;53.538;49.366;2023-03-14T13:55:05;2.40;53.20
67196;DHT22;54122;53.538;49.366;2023-03-14T13:57:46;2.40;53.70
67196;DHT22;54122;53.538;49.366;2023-03-14T14:00:25;2.30;53.70
67196;DHT22;54122;53.538;49.366;2023-03-14T14:02:57;2.30;54.00
67196;DHT22;54122;53.538;49.366;2023-03-14T14:05:29;2.20;54.20
67196;DHT22;54122;53.538;49.366;2023-03-14T14:07:56;2.20;54.60
67196;DHT22;54122;53.538;49.366;2023-03-14T14:10:22;2.20;54.90
67196;DHT22;54122;53.538;49.366;2023-03-14T14:13:23;2.10;55.20
67196;DHT22;54122;53.538;49.366;2023-03-14T14:15:48;2.00;55.50
67196;DHT22;54122;53.538;49.366;2023-03-14T14:18:17;2.00;56.00
67196;DHT22;54122;53.538;49.366;2023-03-14T14:20:47;1.90;56.30
67196;DHT22;54122;53.538;49.366;2023-03-14T14:23:23;1.80;56.50
67196;DHT22;54122;53.538;49.366;2023-03-14T14:25:55;1.80;56.70
67196;DHT22;54122;53.538;49.366;2023-03-14T14:28:36;1.80;57.10
67196;DHT22;54122;53.538;49.366;2023-03-14T14:31:22;1.70;57.20
67196;DHT22;54122;53.538;49.366;2023-03-14T14:36:40;1.60;58.00
67196;DHT22;54122;53.538;49.366;2023-03-14T14:39:18;1.50;58.40
67196;DHT22;54122;53.538;49.366;2023-03-14T14:41:45;1.40;58.70
67196;DHT22;54122;53.538;49.366;2023-03-14T14:44:15;1.30;59.20
67196;DHT22;54122;53.538;49.366;2023-03-14T14:46:42;1.30;60.40
67196;DHT22;54122;53.538;49.366;2023-03-14T14:49:12;1.30;59.70
67196;DHT22;54122;53.538;49.366;2023-03-14T14:51:44;1.30;60.00
67196;DHT22;54122;53.538;49.366;2023-03-14T14:54:16;1.30;60.00
67196;DHT22;54122;53.538;49.366;2023-03-14T14:56:50;1.20;60.50
67196;DHT22;54122;53.538;49.366;2023-03-14T14:59:27;1.20;60.80
67196;DHT22;54122;53.538;49.366;2023-03-14T15:02:03;1.20;61.00
67196;DHT22;54122;53.538;49.366;2023-03-14T15:04:31;1.20;61.40
67196;DHT22;54122;53.538;49.366;2023-03-14T15:06:57;1.20;61.60
67196;DHT22;54122;53.538;49.366;2023-03-14T15:09:23;1.20;61.70
67196;DHT22;54122;53.538;49.366;2023-03-14T15:11:50;1.20;62.20
67196;DHT22;54122;53.538;49.366;2023-03-14T15:14:16;1.20;62.40
67196;DHT22;54122;53.538;49.366;2023-03-14T15:16:43;1.10;62.50
67196;DHT22;54122;53.538;49.366;2023-03-14T15:19:20;1.10;62.80
67196;DHT22;54122;53.538;49.366;2023-03-14T15:21:47;1.10;63.30
67196;DHT22;54122;53.538;49.366;2023-03-14T15:24:13;1.10;63.60
67196;DHT22;54122;53.538;49.366;2023-03-14T15:26:39;1.10;63.90
67196;DHT22;54122;53.538;49.366;2023-03-14T15:29:05;1.10;63.90
67196;DHT22;54122;53.538;49.366;2023-03-14T15:31:34;1.10;64.10
67196;DHT22;54122;53.538;49.366;2023-03-14T15:34:01;1.10;64.20
67196;DHT22;54122;53.538;49.366;2023-03-14T15:36:29;1.10;64.40
67196;DHT22;54122;53.538;49.366;2023-03-14T15:38:59;1.00;64.60
67196;DHT22;54122;53.538;49.366;2023-03-14T15:41:27;1.10;64.70
67196;DHT22;54122;53.538;49.366;2023-03-14T15:43:53;1.10;64.80
67196;DHT22;54122;53.538;49.366;2023-03-14T15:46:20;1.10;65.10
67196;DHT22;54122;53.538;49.366;2023-03-14T15:48:49;1.10;65.30
67196;DHT22;54122;53.538;49.366;2023-03-14T15:51:17;1.10;65.40
67196;DHT22;54122;53.538;49.366;2023-03-14T15:53:43;1.10;65.50
67196;DHT22;54122;53.538;49.366;2023-03-14T15:56:17;1.00;65.60
67196;DHT22;54122;53.538;49.366;2023-03-14T15:58:44;1.00;65.80
67196;DHT22;54122;53.538;49.366;2023-03-14T16:01:13;1.00;66.10
67196;DHT22;54122;53.538;49.366;2023-03-14T16:03:39;1.00;66.20
67196;DHT22;54122;53.538;49.366;2023-03-14T16:06:06;1.10;66.40
67196;DHT22;54122;53.538;49.366;2023-03-14T16:08:32;1.10;66.30
67196;DHT22;54122;53.538;49.366;2023-03-14T16:10:59;1.20;66.40
67196;DHT22;54122;53.538;49.366;2023-03-14T16:13:25;1.20;66.50
67196;DHT22;54122;53.538;49.366;2023-03-14T16:15:56;1.30;66.60
67196;DHT22;54122;53.538;49.366;2023-03-14T16:18:23;1.40;66.60
67196;DHT22;54122;53.538;49.366;2023-03-14T16:20:58;1.50;66.60
67196;DHT22;54122;53.538;49.366;2023-03-14T16:23:25;1.60;66.40
67196;DHT22;54122;53.538;49.366;2023-03-14T16:25:52;1.70;66.40
67196;DHT22;54122;53.538;49.366;2023-03-14T16:28:19;1.80;66.30
67196;DHT22;54122;53.538;49.366;2023-03-14T16:30:45;1.90;66.20
67196;DHT22;54122;53.538;49.366;2023-03-14T16:33:14;1.90;66.20
67196;DHT22;54122;53.538;49.366;2023-03-14T16:35:40;1.80;66.30
67196;DHT22;54122;53.538;49.366;2023-03-14T16:38:07;1.80;66.60
67196;DHT22;54122;53.538;49.366;2023-03-14T16:40:33;1.70;66.90
67196;DHT22;54122;53.538;49.366;2023-03-14T16:42:59;1.70;67.20
67196;DHT22;54122;53.538;49.366;2023-03-14T16:45:29;1.70;67.50
67196;DHT22;54122;53.538;49.366;2023-03-14T16:47:55;1.60;67.80
67196;DHT22;54122;53.538;49.366;2023-03-14T16:50:22;1.70;67.90
67196;DHT22;54122;53.538;49.366;2023-03-14T16:52:48;1.70;68.00
67196;DHT22;54122;53.538;49.366;2023-03-14T16:55:15;1.80;68.10
67196;DHT22;54122;53.538;49.366;2023-03-14T16:57:41;1.80;68.20
67196;DHT22;54122;53.538;49.366;2023-03-14T17:00:08;1.80;68.30
67196;DHT22;54122;53.538;49.366;2023-03-14T17:02:37;1.80;68.40
67196;DHT22;54122;53.538;49.366;2023-03-14T17:05:04;1.80;68.60
67196;DHT22;54122;53.538;49.366;2023-03-14T17:07:30;1.80;68.60
67196;DHT22;54122;53.538;49.366;2023-03-14T17:09:58;1.80;68.80